createdAt,value
2016-01-30T00:00:40.154Z,9.8
2016-01-30T00:01:40.125Z,9.82
2016-01-30T00:02:40.097Z,9.82
2016-01-30T00:03:40.068Z,9.76
2016-01-30T00:04:40.056Z,9.83
2016-01-30T00:05:40.028Z,9.84
2016-01-30T00:06:40.000Z,9.8
2016-01-30T00:07:39.969Z,9.8
2016-01-30T00:08:39.956Z,9.83
2016-01-30T00:09:39.929Z,9.77
2016-01-30T00:10:39.901Z,9.79
2016-01-30T00:11:39.888Z,9.79
2016-01-30T00:12:39.860Z,9.84
2016-01-30T00:13:39.836Z,9.76
2016-01-30T00:14:39.807Z,9.8
2016-01-30T00:15:39.796Z,9.82
2016-01-30T00:16:39.765Z,9.82
2016-01-30T00:17:39.752Z,9.79
2016-01-30T00:18:39.708Z,9.79
2016-01-30T00:19:39.695Z,9.79
2016-01-30T00:20:39.682Z,9.74
2016-01-30T00:21:39.639Z,9.77
2016-01-30T00:22:39.625Z,9.82
2016-01-30T00:23:39.581Z,9.83
2016-01-30T00:24:39.571Z,9.77
2016-01-30T00:25:39.559Z,9.79
2016-01-30T00:26:39.515Z,9.76
2016-01-30T00:27:39.502Z,9.87
2016-01-30T00:28:39.475Z,9.89
2016-01-30T00:29:39.448Z,9.89
2016-01-30T00:30:39.434Z,9.86
2016-01-30T00:31:39.421Z,9.84
2016-01-30T00:32:39.381Z,9.87
2016-01-30T00:33:39.353Z,9.91
2016-01-30T00:34:39.341Z,9.87
2016-01-30T00:35:39.312Z,9.95
2016-01-30T00:36:39.275Z,9.92
2016-01-30T00:37:39.263Z,9.84
2016-01-30T00:38:39.249Z,9.87
2016-01-30T00:39:39.221Z,9.89
2016-01-30T00:40:39.177Z,9.89
2016-01-30T00:41:39.163Z,9.87
2016-01-30T00:42:39.136Z,9.94
2016-01-30T00:43:39.124Z,9.94
2016-01-30T00:44:39.095Z,9.91
2016-01-30T00:45:39.083Z,9.87
2016-01-30T00:46:39.045Z,9.89
2016-01-30T00:47:39.015Z,9.98
2016-01-30T00:48:39.003Z,9.97
2016-01-30T00:49:38.974Z,9.87
2016-01-30T00:50:38.945Z,9.89
2016-01-30T00:51:38.919Z,9.86
2016-01-30T00:52:38.906Z,9.87
2016-01-30T00:53:38.861Z,9.94
2016-01-30T00:54:38.849Z,9.87
2016-01-30T00:55:38.820Z,9.91
2016-01-30T00:56:38.791Z,9.86
2016-01-30T00:57:38.779Z,9.86
2016-01-30T00:58:38.749Z,9.86
2016-01-30T00:59:38.737Z,9.87
2016-01-30T01:00:38.724Z,9.84
2016-01-30T01:01:38.683Z,9.84
2016-01-30T01:02:38.654Z,9.89
2016-01-30T01:03:38.475Z,9.76
2016-01-30T01:04:38.639Z,9.83
2016-01-30T01:05:38.596Z,9.79
2016-01-30T01:06:38.555Z,9.77
2016-01-30T01:07:38.542Z,9.84
2016-01-30T01:08:38.514Z,9.8
2016-01-30T01:09:38.488Z,9.74
2016-01-30T01:10:38.462Z,9.72
2016-01-30T01:11:38.434Z,9.74
2016-01-30T01:12:38.405Z,9.76
2016-01-30T01:13:38.392Z,9.73
2016-01-30T01:14:38.365Z,9.74
2016-01-30T01:15:38.335Z,9.68
2016-01-30T01:16:38.327Z,9.73
2016-01-30T01:17:38.298Z,9.79
2016-01-30T01:18:38.270Z,9.76
2016-01-30T01:19:38.257Z,9.65
2016-01-30T01:20:38.229Z,9.79
2016-01-30T01:21:38.200Z,9.69
2016-01-30T01:22:38.172Z,9.69
2016-01-30T01:23:38.159Z,9.62
2016-01-30T01:24:38.132Z,9.73
2016-01-30T01:25:38.103Z,9.77
2016-01-30T01:26:38.074Z,9.72
2016-01-30T01:27:38.062Z,9.72
2016-01-30T01:28:38.032Z,9.72
2016-01-30T01:29:38.005Z,9.77
2016-01-30T01:30:37.993Z,9.72
2016-01-30T01:31:37.980Z,9.69
2016-01-30T01:32:37.935Z,9.77
2016-01-30T01:33:37.908Z,9.72
2016-01-30T01:34:37.895Z,9.65
2016-01-30T01:35:37.866Z,9.76
2016-01-30T01:36:37.845Z,9.69
2016-01-30T01:37:37.815Z,9.76
2016-01-30T01:38:37.803Z,9.79
2016-01-30T01:39:37.760Z,9.74
2016-01-30T01:40:37.746Z,9.73
2016-01-30T01:41:37.715Z,9.73
2016-01-30T01:42:37.702Z,9.82
2016-01-30T01:43:37.684Z,9.79
2016-01-30T01:44:37.656Z,9.83
2016-01-30T01:45:37.472Z,9.8
2016-01-30T01:46:37.599Z,9.77
2016-01-30T01:47:37.572Z,9.79
2016-01-30T01:48:37.542Z,9.82
2016-01-30T01:49:37.530Z,9.77
2016-01-30T01:50:37.502Z,9.8
2016-01-30T01:51:37.473Z,9.79
2016-01-30T01:52:37.461Z,9.76
2016-01-30T01:53:37.448Z,9.91
2016-01-30T01:54:37.404Z,9.87
2016-01-30T01:55:37.376Z,9.77
2016-01-30T01:56:37.363Z,9.82
2016-01-30T01:57:37.335Z,9.83
2016-01-30T01:58:37.308Z,9.86
2016-01-30T01:59:37.295Z,9.89
2016-01-30T02:00:37.267Z,9.91
2016-01-30T02:01:37.238Z,9.91
2016-01-30T02:02:37.225Z,9.89
2016-01-30T02:03:37.197Z,9.92
2016-01-30T02:04:37.169Z,9.89
2016-01-30T02:05:37.155Z,9.97
2016-01-30T02:06:37.127Z,9.89
2016-01-30T02:07:37.100Z,9.91
2016-01-30T02:08:37.088Z,9.95
2016-01-30T02:09:37.059Z,9.97
2016-01-30T02:10:37.030Z,9.91
2016-01-30T02:11:37.001Z,9.97
2016-01-30T02:12:36.974Z,9.95
2016-01-30T02:13:36.945Z,9.89
2016-01-30T02:14:36.932Z,9.87
2016-01-30T02:15:36.905Z,9.98
2016-01-30T02:16:36.892Z,9.98
2016-01-30T02:17:36.864Z,9.99
2016-01-30T02:18:36.835Z,10.04
2016-01-30T02:19:36.807Z,10.12
2016-01-30T02:20:36.809Z,10.04
2016-01-30T02:21:36.781Z,10.09
2016-01-30T02:22:36.753Z,10.1
2016-01-30T02:23:36.723Z,10.07
2016-01-30T02:24:36.711Z,10.02
2016-01-30T02:25:36.668Z,10.05
2016-01-30T02:26:36.654Z,10.07
2016-01-30T02:27:36.626Z,10.09
2016-01-30T02:28:36.613Z,10.04
2016-01-30T02:29:36.571Z,10.05
2016-01-30T02:30:36.559Z,10.13
2016-01-30T02:31:36.531Z,10.02
2016-01-30T02:32:36.517Z,9.99
2016-01-30T02:33:36.489Z,10.07
2016-01-30T02:34:36.463Z,10.01
2016-01-30T02:35:36.434Z,9.98
2016-01-30T02:36:36.406Z,10.04
2016-01-30T02:37:36.426Z,9.97
2016-01-30T02:38:36.366Z,10.05
2016-01-30T02:39:36.338Z,10.01
2016-01-30T02:40:36.308Z,10.02
2016-01-30T02:41:36.296Z,9.97
2016-01-30T02:42:36.394Z,9.95
2016-01-30T02:43:36.239Z,9.89
2016-01-30T02:44:36.228Z,9.97
2016-01-30T02:45:36.199Z,9.89
2016-01-30T02:46:36.186Z,9.97
2016-01-30T02:47:36.142Z,9.99
2016-01-30T02:48:36.133Z,9.92
2016-01-30T02:49:36.104Z,9.87
2016-01-30T02:50:36.076Z,9.83
2016-01-30T02:51:36.048Z,9.86
2016-01-30T02:52:36.034Z,9.86
2016-01-30T02:53:36.021Z,9.86
2016-01-30T02:54:35.967Z,9.79
2016-01-30T02:55:35.929Z,9.77
2016-01-30T02:56:35.906Z,9.77
2016-01-30T02:57:35.866Z,9.82
2016-01-30T02:58:35.827Z,9.8
2016-01-30T02:59:35.812Z,9.84
2016-01-30T03:00:35.781Z,9.73
2016-01-30T03:01:35.748Z,9.76
2016-01-30T03:02:35.732Z,9.76
2016-01-30T03:03:35.718Z,9.76
2016-01-30T03:04:35.672Z,9.79
2016-01-30T03:05:35.641Z,9.77
2016-01-30T03:06:35.627Z,9.72
2016-01-30T03:07:35.600Z,9.69
2016-01-30T03:08:35.571Z,9.79
2016-01-30T03:09:35.558Z,9.74
2016-01-30T03:10:35.513Z,9.65
2016-01-30T03:11:35.502Z,9.73
2016-01-30T03:12:35.473Z,9.69
2016-01-30T03:13:35.445Z,9.69
2016-01-30T03:14:35.419Z,9.72
2016-01-30T03:15:35.391Z,9.72
2016-01-30T03:16:35.393Z,9.66
2016-01-30T03:17:35.349Z,9.68
2016-01-30T03:18:35.336Z,9.66
2016-01-30T03:19:35.308Z,9.68
2016-01-30T03:20:35.277Z,9.65
2016-01-30T03:21:35.249Z,9.64
2016-01-30T03:22:35.239Z,9.69
2016-01-30T03:23:35.225Z,9.64
2016-01-30T03:24:35.181Z,9.72
2016-01-30T03:25:35.153Z,9.69
2016-01-30T03:26:35.142Z,9.65
2016-01-30T03:27:35.097Z,9.68
2016-01-30T03:28:35.083Z,9.64
2016-01-30T03:29:35.056Z,9.69
2016-01-30T03:30:35.030Z,9.69
2016-01-30T03:31:35.002Z,9.64
2016-01-30T03:32:34.990Z,9.62
2016-01-30T03:33:34.976Z,9.59
2016-01-30T03:34:34.932Z,9.62
2016-01-30T03:35:34.906Z,9.54
2016-01-30T03:36:34.892Z,9.58
2016-01-30T03:37:34.866Z,9.61
2016-01-30T03:38:34.853Z,9.58
2016-01-30T03:39:34.815Z,9.59
2016-01-30T03:40:34.787Z,9.62
2016-01-30T03:41:34.774Z,9.61
2016-01-30T03:42:34.746Z,9.58
2016-01-30T03:43:34.718Z,9.44
2016-01-30T03:44:34.690Z,9.58
2016-01-30T03:45:34.677Z,9.47
2016-01-30T03:46:34.649Z,9.48
2016-01-30T03:47:34.620Z,9.48
2016-01-30T03:48:34.608Z,9.48
2016-01-30T03:49:34.580Z,9.47
2016-01-30T03:50:34.551Z,9.43
2016-01-30T03:51:34.538Z,9.55
2016-01-30T03:52:34.509Z,9.44
2016-01-30T03:53:34.481Z,9.5
2016-01-30T03:54:34.453Z,9.5
2016-01-30T03:55:34.424Z,9.46
2016-01-30T03:56:34.411Z,9.5
2016-01-30T03:57:34.383Z,9.5
2016-01-30T03:58:34.355Z,9.44
2016-01-30T03:59:34.341Z,9.54
2016-01-30T04:00:34.315Z,9.51
2016-01-30T04:01:34.286Z,9.5
2016-01-30T04:02:34.257Z,9.48
2016-01-30T04:03:34.245Z,9.44
2016-01-30T04:04:34.217Z,9.43
2016-01-30T04:05:34.189Z,9.4
2016-01-30T04:06:34.176Z,9.43
2016-01-30T04:07:34.147Z,9.34
2016-01-30T04:08:34.122Z,9.48
2016-01-30T04:09:34.094Z,9.4
2016-01-30T04:10:34.064Z,9.34
2016-01-30T04:11:34.069Z,9.4
2016-01-30T04:12:34.025Z,9.46
2016-01-30T04:13:33.996Z,9.36
2016-01-30T04:14:33.968Z,9.34
2016-01-30T04:15:33.940Z,9.36
2016-01-30T04:16:33.957Z,9.31
2016-01-30T04:17:33.898Z,9.37
2016-01-30T04:18:33.869Z,9.37
2016-01-30T04:19:33.872Z,9.44
2016-01-30T04:20:33.812Z,9.28
2016-01-30T04:21:33.799Z,9.44
2016-01-30T04:22:33.770Z,9.37
2016-01-30T04:23:33.761Z,9.43
2016-01-30T04:24:33.718Z,9.36
2016-01-30T04:25:33.705Z,9.39
2016-01-30T04:26:33.676Z,9.31
2016-01-30T04:27:33.668Z,9.32
2016-01-30T04:28:33.624Z,9.36
2016-01-30T04:29:33.595Z,9.37
2016-01-30T04:30:33.582Z,9.36
2016-01-30T04:31:33.557Z,9.4
2016-01-30T04:32:33.531Z,9.4
2016-01-30T04:33:33.506Z,9.32
2016-01-30T04:34:33.478Z,9.37
2016-01-30T04:35:33.449Z,9.44
2016-01-30T04:36:33.436Z,9.31
2016-01-30T04:37:33.407Z,9.39
2016-01-30T04:38:33.379Z,9.37
2016-01-30T04:39:33.366Z,9.39
2016-01-30T04:40:33.338Z,9.36
2016-01-30T04:41:33.309Z,9.34
2016-01-30T04:42:33.301Z,9.39
2016-01-30T04:43:33.257Z,9.37
2016-01-30T04:44:33.229Z,9.37
2016-01-30T04:45:33.216Z,9.36
2016-01-30T04:46:33.219Z,9.32
2016-01-30T04:47:33.159Z,9.34
2016-01-30T04:48:33.130Z,9.41
2016-01-30T04:49:33.118Z,9.37
2016-01-30T04:50:33.089Z,9.36
2016-01-30T04:51:33.061Z,9.39
2016-01-30T04:52:33.033Z,9.34
2016-01-30T04:53:33.019Z,9.34
2016-01-30T04:54:33.007Z,9.37
2016-01-30T04:55:32.965Z,9.28
2016-01-30T04:56:32.935Z,9.26
2016-01-30T04:57:32.923Z,9.23
2016-01-30T04:58:32.893Z,9.31
2016-01-30T04:59:32.867Z,9.28
2016-01-30T05:00:32.855Z,9.22
2016-01-30T05:01:32.829Z,9.19
2016-01-30T05:02:32.801Z,9.28
2016-01-30T05:03:32.773Z,9.22
2016-01-30T05:04:32.760Z,9.25
2016-01-30T05:05:32.733Z,9.13
2016-01-30T05:06:32.533Z,9.19
2016-01-30T05:07:32.676Z,9.29
2016-01-30T05:08:32.648Z,9.22
2016-01-30T05:09:32.620Z,9.31
2016-01-30T05:10:32.590Z,9.29
2016-01-30T05:11:32.578Z,9.23
2016-01-30T05:12:32.550Z,9.25
2016-01-30T05:13:32.524Z,9.21
2016-01-30T05:14:32.512Z,9.19
2016-01-30T05:15:32.482Z,9.25
2016-01-30T05:16:32.454Z,9.16
2016-01-30T05:17:32.441Z,9.19
2016-01-30T05:18:32.414Z,9.14
2016-01-30T05:19:32.416Z,9.1
2016-01-30T05:20:32.362Z,9.04
2016-01-30T05:21:32.333Z,9.16
2016-01-30T05:22:32.305Z,9.11
2016-01-30T05:23:32.292Z,9.08
2016-01-30T05:24:32.263Z,9.14
2016-01-30T05:25:32.234Z,9.08
2016-01-30T05:26:32.206Z,9.19
2016-01-30T05:27:32.193Z,9.1
2016-01-30T05:28:32.164Z,9.11
2016-01-30T05:29:32.137Z,9.18
2016-01-30T05:30:32.107Z,9.06
2016-01-30T05:31:32.080Z,9.08
2016-01-30T05:32:32.052Z,9.08
2016-01-30T05:33:32.039Z,9.1
2016-01-30T05:34:32.011Z,9.11
2016-01-30T05:35:31.982Z,9.06
2016-01-30T05:36:31.969Z,9.08
2016-01-30T05:37:31.942Z,9.08
2016-01-30T05:38:31.913Z,9.1
2016-01-30T05:39:31.901Z,9.06
2016-01-30T05:40:31.873Z,9.08
2016-01-30T05:41:31.844Z,9.13
2016-01-30T05:42:31.815Z,9.06
2016-01-30T05:43:31.801Z,9.1
2016-01-30T05:44:31.756Z,9.1
2016-01-30T05:45:31.759Z,9
2016-01-30T05:46:31.715Z,9.03
2016-01-30T05:47:31.703Z,9.04
2016-01-30T05:48:31.691Z,9.08
2016-01-30T05:49:31.647Z,9.06
2016-01-30T05:50:31.633Z,9.08
2016-01-30T05:51:31.606Z,9.14
2016-01-30T05:52:31.578Z,9.08
2016-01-30T05:53:31.548Z,9.14
2016-01-30T05:54:31.520Z,9.11
2016-01-30T05:55:31.492Z,9.18
2016-01-30T05:56:31.481Z,9.1
2016-01-30T05:57:31.453Z,9.16
2016-01-30T05:58:31.426Z,9.14
2016-01-30T05:59:31.397Z,9.14
2016-01-30T06:00:31.384Z,9.1
2016-01-30T06:01:31.355Z,9.21
2016-01-30T06:02:31.327Z,9.19
2016-01-30T06:03:31.298Z,9.19
2016-01-30T06:04:31.285Z,9.18
2016-01-30T06:05:31.241Z,9.18
2016-01-30T06:06:31.232Z,9.18
2016-01-30T06:07:31.203Z,9.18
2016-01-30T06:08:31.175Z,9.16
2016-01-30T06:09:31.162Z,9.26
2016-01-30T06:10:31.134Z,9.19
2016-01-30T06:11:31.106Z,9.21
2016-01-30T06:12:31.092Z,9.26
2016-01-30T06:13:31.049Z,9.18
2016-01-30T06:14:30.864Z,9.14
2016-01-30T06:15:31.014Z,9.19
2016-01-30T06:16:30.985Z,9.22
2016-01-30T06:17:30.945Z,9.23
2016-01-30T06:18:30.933Z,9.21
2016-01-30T06:19:30.920Z,9.19
2016-01-30T06:20:30.876Z,9.21
2016-01-30T06:21:30.865Z,9.18
2016-01-30T06:22:30.820Z,9.16
2016-01-30T06:23:30.807Z,9.16
2016-01-30T06:24:30.794Z,9.14
2016-01-30T06:25:30.751Z,9.1
2016-01-30T06:26:30.785Z,9.08
2016-01-30T06:27:30.710Z,9.11
2016-01-30T06:28:30.696Z,9.06
2016-01-30T06:29:30.653Z,9.1
2016-01-30T06:30:30.641Z,9.13
2016-01-30T06:31:30.627Z,9.1
2016-01-30T06:32:30.583Z,9.06
2016-01-30T06:33:30.570Z,9.06
2016-01-30T06:34:30.558Z,9.16
2016-01-30T06:35:30.514Z,9.14
2016-01-30T06:36:30.485Z,9.14
2016-01-30T06:37:30.456Z,9.1
2016-01-30T06:38:30.448Z,9.03
2016-01-30T06:39:30.403Z,9.08
2016-01-30T06:40:30.468Z,9.06
2016-01-30T06:41:30.378Z,9.06
2016-01-30T06:42:30.348Z,9.08
2016-01-30T06:43:30.320Z,9.06
2016-01-30T06:44:30.307Z,9.04
2016-01-30T06:45:30.374Z,9.04
2016-01-30T06:46:30.236Z,9
2016-01-30T06:47:30.208Z,9.06
2016-01-30T06:48:30.199Z,9.02
2016-01-30T06:49:30.171Z,9.06
2016-01-30T06:50:30.143Z,8.99
2016-01-30T06:51:30.114Z,8.97
2016-01-30T06:52:30.101Z,9.03
2016-01-30T06:53:30.074Z,9.03
2016-01-30T06:54:30.045Z,9.02
2016-01-30T06:55:30.016Z,8.97
2016-01-30T06:56:30.000Z,9.04
2016-01-30T06:57:29.972Z,9.06
2016-01-30T06:58:29.944Z,9.06
2016-01-30T06:59:29.916Z,9
2016-01-30T07:00:29.902Z,8.95
2016-01-30T07:01:29.874Z,9.02
2016-01-30T07:02:29.846Z,9.02
2016-01-30T07:03:29.816Z,9
2016-01-30T07:04:29.819Z,8.97
2016-01-30T07:05:29.775Z,9
2016-01-30T07:06:29.747Z,8.97
2016-01-30T07:07:29.718Z,9
2016-01-30T07:08:29.550Z,9.06
2016-01-30T07:09:29.678Z,9.03
2016-01-30T07:10:29.650Z,9.04
2016-01-30T07:11:29.621Z,8.99
2016-01-30T07:12:29.593Z,9.02
2016-01-30T07:13:29.565Z,9.02
2016-01-30T07:14:29.552Z,9.08
2016-01-30T07:15:29.524Z,9.02
2016-01-30T07:16:29.513Z,9.03
2016-01-30T07:17:29.471Z,9.06
2016-01-30T07:18:29.475Z,9.1
2016-01-30T07:19:29.430Z,9.08
2016-01-30T07:20:29.417Z,9.08
2016-01-30T07:21:29.390Z,9.02
2016-01-30T07:22:29.348Z,9.1
2016-01-30T07:23:29.321Z,9.08
2016-01-30T07:24:29.307Z,9.1
2016-01-30T07:25:29.279Z,9.03
2016-01-30T07:26:29.249Z,9.08
2016-01-30T07:27:29.238Z,9.1
2016-01-30T07:28:29.210Z,9.04
2016-01-30T07:29:28.446Z,9.02
2016-01-30T07:30:29.152Z,9.03
2016-01-30T07:31:29.144Z,9.04
2016-01-30T07:32:29.099Z,9.06
2016-01-30T07:33:29.087Z,9.04
2016-01-30T07:34:29.059Z,9.06
2016-01-30T07:35:29.045Z,9.11
2016-01-30T07:36:29.000Z,9.1
2016-01-30T07:37:28.988Z,9.18
2016-01-30T07:38:28.959Z,9.1
2016-01-30T07:39:28.961Z,9.16
2016-01-30T07:40:28.902Z,9.18
2016-01-30T07:41:28.877Z,9.18
2016-01-30T07:42:28.865Z,9.14
2016-01-30T07:43:28.851Z,9.1
2016-01-30T07:44:28.807Z,9.14
2016-01-30T07:45:28.779Z,9.16
2016-01-30T07:46:28.759Z,9.16
2016-01-30T07:47:28.730Z,9.18
2016-01-30T07:48:28.718Z,9.13
2016-01-30T07:49:28.689Z,9.13
2016-01-30T07:50:28.677Z,9.11
2016-01-30T07:51:28.633Z,9.14
2016-01-30T07:52:28.605Z,9.13
2016-01-30T07:53:28.591Z,9.14
2016-01-30T07:54:28.564Z,9.21
2016-01-30T07:55:28.535Z,9.08
2016-01-30T07:56:28.523Z,9.08
2016-01-30T07:57:28.494Z,9.13
2016-01-30T07:58:28.465Z,9.04
2016-01-30T07:59:28.437Z,9.08
2016-01-30T08:00:28.424Z,9.08
2016-01-30T08:01:28.411Z,9.04
2016-01-30T08:02:28.367Z,9.04
2016-01-30T08:03:28.338Z,8.97
2016-01-30T08:04:28.325Z,9.03
2016-01-30T08:05:28.297Z,9.02
2016-01-30T08:06:28.268Z,9.04
2016-01-30T08:07:28.255Z,8.97
2016-01-30T08:08:28.227Z,9
2016-01-30T08:09:28.199Z,8.94
2016-01-30T08:10:28.186Z,9.02
2016-01-30T08:11:28.142Z,9
2016-01-30T08:12:28.114Z,9.04
2016-01-30T08:13:28.102Z,9.02
2016-01-30T08:14:28.074Z,8.94
2016-01-30T08:15:28.045Z,8.97
2016-01-30T08:16:28.036Z,9.02
2016-01-30T08:17:28.007Z,9.04
2016-01-30T08:18:27.978Z,8.97
2016-01-30T08:19:27.950Z,9.02
2016-01-30T08:20:27.921Z,9.02
2016-01-30T08:21:27.908Z,9
2016-01-30T08:22:27.911Z,9.04
2016-01-30T08:23:27.851Z,9.02
2016-01-30T08:24:27.838Z,9.11
2016-01-30T08:25:27.824Z,9.1
2016-01-30T08:26:27.781Z,8.99
2016-01-30T08:27:27.768Z,9.06
2016-01-30T08:28:27.743Z,9.06
2016-01-30T08:29:27.714Z,9.04
2016-01-30T08:30:27.686Z,9.1
2016-01-30T08:31:27.674Z,9.03
2016-01-30T08:32:27.638Z,9.04
2016-01-30T08:33:27.610Z,9.03
2016-01-30T08:34:27.612Z,9.04
2016-01-30T08:35:27.553Z,9
2016-01-30T08:36:27.540Z,9.04
2016-01-30T08:37:27.511Z,9.02
2016-01-30T08:38:27.498Z,9.08
2016-01-30T08:39:27.470Z,9.06
2016-01-30T08:40:27.457Z,9.1
2016-01-30T08:41:27.427Z,9.11
2016-01-30T08:42:27.399Z,9.08
2016-01-30T08:43:27.464Z,9.02
2016-01-30T08:44:27.342Z,9.03
2016-01-30T08:45:27.311Z,9.03
2016-01-30T08:46:27.332Z,9.04
2016-01-30T08:47:27.259Z,9.02
2016-01-30T08:48:27.240Z,9.11
2016-01-30T08:49:27.229Z,9.06
2016-01-30T08:50:27.184Z,9.06
2016-01-30T08:51:27.159Z,9.04
2016-01-30T08:52:27.146Z,9.06
2016-01-30T08:53:27.117Z,9.1
2016-01-30T08:54:27.090Z,9.04
2016-01-30T08:55:27.077Z,9.06
2016-01-30T08:56:27.033Z,9.03
2016-01-30T08:57:27.020Z,9.11
2016-01-30T08:58:27.007Z,9.04
2016-01-30T08:59:26.963Z,9.06
2016-01-30T09:00:26.951Z,9.11
2016-01-30T09:01:26.938Z,9.06
2016-01-30T09:02:26.893Z,9.06
2016-01-30T09:03:26.865Z,9.02
2016-01-30T09:04:26.851Z,9.03
2016-01-30T09:05:26.824Z,9.04
2016-01-30T09:06:26.800Z,9
2016-01-30T09:07:26.802Z,9.1
2016-01-30T09:08:26.758Z,9.03
2016-01-30T09:09:26.730Z,9.04
2016-01-30T09:10:26.700Z,9.04
2016-01-30T09:11:26.672Z,9.06
2016-01-30T09:12:26.646Z,9.06
2016-01-30T09:13:26.633Z,9.06
2016-01-30T09:14:26.596Z,9.1
2016-01-30T09:15:26.584Z,9.08
2016-01-30T09:16:26.555Z,9.16
2016-01-30T09:17:26.542Z,9.06
2016-01-30T09:18:26.513Z,9.11
2016-01-30T09:19:26.485Z,9.11
2016-01-30T09:20:26.457Z,9.13
2016-01-30T09:21:26.429Z,9.11
2016-01-30T09:22:26.416Z,9.19
2016-01-30T09:23:26.372Z,9.14
2016-01-30T09:24:26.358Z,9.21
2016-01-30T09:25:26.332Z,9.21
2016-01-30T09:26:26.304Z,9.18
2016-01-30T09:27:26.290Z,9.22
2016-01-30T09:28:26.278Z,9.21
2016-01-30T09:29:26.235Z,9.26
2016-01-30T09:30:26.222Z,9.18
2016-01-30T09:31:26.194Z,9.22
2016-01-30T09:32:26.197Z,9.22
2016-01-30T09:33:26.137Z,9.22
2016-01-30T09:34:26.114Z,9.25
2016-01-30T09:35:26.101Z,9.23
2016-01-30T09:36:26.072Z,9.28
2016-01-30T09:37:26.044Z,9.23
2016-01-30T09:38:26.019Z,9.21
2016-01-30T09:39:25.833Z,9.26
2016-01-30T09:40:25.977Z,9.19
2016-01-30T09:41:25.948Z,9.21
2016-01-30T09:42:25.919Z,9.26
2016-01-30T09:43:25.907Z,9.21
2016-01-30T09:44:25.881Z,9.23
2016-01-30T09:45:25.853Z,9.23
2016-01-30T09:46:25.825Z,9.21
2016-01-30T09:47:25.858Z,9.19
2016-01-30T09:48:25.783Z,9.23
2016-01-30T09:49:25.754Z,9.23
2016-01-30T09:50:25.742Z,9.21
2016-01-30T09:51:25.713Z,9.22
2016-01-30T09:52:25.683Z,9.28
2016-01-30T09:53:25.656Z,9.19
2016-01-30T09:54:25.628Z,9.19
2016-01-30T09:55:25.615Z,9.22
2016-01-30T09:56:25.586Z,9.22
2016-01-30T09:57:25.560Z,9.18
2016-01-30T09:58:25.547Z,9.19
2016-01-30T09:59:25.518Z,9.22
2016-01-30T10:00:25.505Z,9.19
2016-01-30T10:01:25.461Z,9.19
2016-01-30T10:02:25.448Z,9.16
2016-01-30T10:03:25.263Z,9.21
2016-01-30T10:04:25.391Z,9.22
2016-01-30T10:05:25.363Z,9.14
2016-01-30T10:06:25.413Z,9.14
2016-01-30T10:07:25.319Z,9.18
2016-01-30T10:08:25.290Z,9.13
2016-01-30T10:09:25.276Z,9.18
2016-01-30T10:10:25.248Z,9.14
2016-01-30T10:11:25.220Z,9.19
2016-01-30T10:12:25.207Z,9.16
2016-01-30T10:13:25.179Z,9.19
2016-01-30T10:14:25.151Z,9.18
2016-01-30T10:15:25.138Z,9.19
2016-01-30T10:16:25.101Z,9.14
2016-01-30T10:17:25.151Z,9.19
2016-01-30T10:18:25.044Z,9.25
2016-01-30T10:19:25.032Z,9.22
2016-01-30T10:20:25.018Z,9.21
2016-01-30T10:21:24.974Z,9.23
2016-01-30T10:22:24.961Z,9.19
2016-01-30T10:23:24.932Z,9.29
2016-01-30T10:24:24.904Z,9.25
2016-01-30T10:25:24.923Z,9.25
2016-01-30T10:26:24.863Z,9.25
2016-01-30T10:27:24.834Z,9.23
2016-01-30T10:28:24.821Z,9.19
2016-01-30T10:29:24.778Z,9.22
2016-01-30T10:30:24.765Z,9.25
2016-01-30T10:31:24.737Z,9.23
2016-01-30T10:32:24.740Z,9.26
2016-01-30T10:33:24.679Z,9.28
2016-01-30T10:34:24.667Z,9.26
2016-01-30T10:35:24.655Z,9.25
2016-01-30T10:36:24.627Z,9.14
2016-01-30T10:37:24.598Z,9.23
2016-01-30T10:38:24.569Z,9.21
2016-01-30T10:39:24.557Z,9.18
2016-01-30T10:40:24.519Z,9.22
2016-01-30T10:41:24.491Z,9.23
2016-01-30T10:42:24.478Z,9.14
2016-01-30T10:43:24.465Z,9.18
2016-01-30T10:44:24.421Z,9.18
2016-01-30T10:45:24.399Z,9.23
2016-01-30T10:46:24.370Z,9.14
2016-01-30T10:47:24.357Z,9.14
2016-01-30T10:48:24.345Z,9.19
2016-01-30T10:49:24.316Z,9.19
2016-01-30T10:50:24.291Z,9.16
2016-01-30T10:51:24.261Z,9.18
2016-01-30T10:52:24.233Z,9.19
2016-01-30T10:53:24.205Z,9.19
2016-01-30T10:54:24.180Z,9.21
2016-01-30T10:55:24.167Z,9.22
2016-01-30T10:56:24.153Z,9.22
2016-01-30T10:57:24.109Z,9.16
2016-01-30T10:58:24.081Z,9.14
2016-01-30T10:59:24.070Z,9.16
2016-01-30T11:00:24.041Z,9.18
2016-01-30T11:01:24.013Z,9.08
2016-01-30T11:02:24.000Z,9.11
2016-01-30T11:03:23.988Z,9.06
2016-01-30T11:04:23.944Z,9.08
2016-01-30T11:05:23.919Z,9.16
2016-01-30T11:06:23.905Z,9.18
2016-01-30T11:07:23.861Z,9.1
2016-01-30T11:08:23.848Z,9.08
2016-01-30T11:09:23.836Z,9.04
2016-01-30T11:10:23.808Z,9.03
2016-01-30T11:11:23.779Z,9.04
2016-01-30T11:12:23.766Z,9.04
2016-01-30T11:13:23.737Z,9.04
2016-01-30T11:14:23.696Z,9.1
2016-01-30T11:15:23.683Z,9.11
2016-01-30T11:16:23.655Z,9.02
2016-01-30T11:17:23.644Z,9.04
2016-01-30T11:18:23.618Z,9.1
2016-01-30T11:19:23.589Z,9
2016-01-30T11:20:23.561Z,9.06
2016-01-30T11:21:23.547Z,8.99
2016-01-30T11:22:23.504Z,9.02
2016-01-30T11:23:23.475Z,8.97
2016-01-30T11:24:23.462Z,8.97
2016-01-30T11:25:23.433Z,8.97
2016-01-30T11:26:23.422Z,8.97
2016-01-30T11:27:23.393Z,8.88
2016-01-30T11:28:23.380Z,8.92
2016-01-30T11:29:23.337Z,8.91
2016-01-30T11:30:23.339Z,8.92
2016-01-30T11:31:23.295Z,8.91
2016-01-30T11:32:23.267Z,8.92
2016-01-30T11:33:23.240Z,8.88
2016-01-30T11:34:23.227Z,8.92
2016-01-30T11:35:23.199Z,8.92
2016-01-30T11:36:23.170Z,8.91
2016-01-30T11:37:23.143Z,8.92
2016-01-30T11:38:23.131Z,9.02
2016-01-30T11:39:23.117Z,8.94
2016-01-30T11:40:23.089Z,8.99
2016-01-30T11:41:23.063Z,8.92
2016-01-30T11:42:23.065Z,8.91
2016-01-30T11:43:23.006Z,8.99
2016-01-30T11:44:22.978Z,8.99
2016-01-30T11:45:22.948Z,9.03
2016-01-30T11:46:22.936Z,8.94
2016-01-30T11:47:22.910Z,8.89
2016-01-30T11:48:22.881Z,8.91
2016-01-30T11:49:22.869Z,8.94
2016-01-30T11:50:22.840Z,8.89
2016-01-30T11:51:22.795Z,8.95
2016-01-30T11:52:22.814Z,8.95
2016-01-30T11:53:22.755Z,8.91
2016-01-30T11:54:22.726Z,8.97
2016-01-30T11:55:22.713Z,8.99
2016-01-30T11:56:22.686Z,8.99
2016-01-30T11:57:22.658Z,8.94
2016-01-30T11:58:22.645Z,8.94
2016-01-30T11:59:22.601Z,8.92
2016-01-30T12:00:22.578Z,8.89
2016-01-30T12:01:22.550Z,8.97
2016-01-30T12:02:22.491Z,8.91
2016-01-30T12:03:22.447Z,8.97
2016-01-30T12:04:22.420Z,8.97
2016-01-30T12:05:22.385Z,8.91
2016-01-30T12:06:22.351Z,8.91
2016-01-30T12:07:22.333Z,8.95
2016-01-30T12:08:22.299Z,8.95
2016-01-30T12:09:22.265Z,8.89
2016-01-30T12:10:22.249Z,8.91
2016-01-30T12:11:22.220Z,8.95
2016-01-30T12:12:22.189Z,8.88
2016-01-30T12:13:22.159Z,8.84
2016-01-30T12:14:22.128Z,8.87
2016-01-30T12:15:22.098Z,8.82
2016-01-30T12:16:22.084Z,8.92
2016-01-30T12:17:22.065Z,8.85
2016-01-30T12:18:22.036Z,8.84
2016-01-30T12:19:22.005Z,8.85
2016-01-30T12:20:21.977Z,8.94
2016-01-30T12:21:21.965Z,8.89
2016-01-30T12:22:21.935Z,8.92
2016-01-30T12:23:21.906Z,8.82
2016-01-30T12:24:21.878Z,8.81
2016-01-30T12:25:21.865Z,8.82
2016-01-30T12:26:21.837Z,8.82
2016-01-30T12:27:21.809Z,8.81
2016-01-30T12:28:21.780Z,8.82
2016-01-30T12:29:21.768Z,8.81
2016-01-30T12:30:21.738Z,8.78
2016-01-30T12:31:21.710Z,8.76
2016-01-30T12:32:21.698Z,8.81
2016-01-30T12:33:21.669Z,8.71
2016-01-30T12:34:21.640Z,8.78
2016-01-30T12:35:21.613Z,8.81
2016-01-30T12:36:21.585Z,8.71
2016-01-30T12:37:21.555Z,8.78
2016-01-30T12:38:21.527Z,8.76
2016-01-30T12:39:21.515Z,8.79
2016-01-30T12:40:21.486Z,8.78
2016-01-30T12:41:21.458Z,8.81
2016-01-30T12:42:21.445Z,8.73
2016-01-30T12:43:21.417Z,8.76
2016-01-30T12:44:21.389Z,8.81
2016-01-30T12:45:21.361Z,8.69
2016-01-30T12:46:21.348Z,8.78
2016-01-30T12:47:21.319Z,8.73
2016-01-30T12:48:21.361Z,8.67
2016-01-30T12:49:21.270Z,8.78
2016-01-30T12:50:21.242Z,8.7
2016-01-30T12:51:21.213Z,8.69
2016-01-30T12:52:21.201Z,8.7
2016-01-30T12:53:21.173Z,8.69
2016-01-30T12:54:21.144Z,8.7
2016-01-30T12:55:21.131Z,8.7
2016-01-30T12:56:21.102Z,8.69
2016-01-30T12:57:21.074Z,8.71
2016-01-30T12:58:21.048Z,8.76
2016-01-30T12:59:21.019Z,8.7
2016-01-30T13:00:21.006Z,8.71
2016-01-30T13:01:20.978Z,8.78
2016-01-30T13:02:20.965Z,8.69
2016-01-30T13:03:20.936Z,8.7
2016-01-30T13:04:20.892Z,8.69
2016-01-30T13:05:20.864Z,8.7
2016-01-30T13:06:20.850Z,8.61
2016-01-30T13:07:20.825Z,8.66
2016-01-30T13:08:20.812Z,8.6
2016-01-30T13:09:20.769Z,8.71
2016-01-30T13:10:20.757Z,8.73
2016-01-30T13:11:20.727Z,8.61
2016-01-30T13:12:20.715Z,8.66
2016-01-30T13:13:20.704Z,8.64
2016-01-30T13:14:20.660Z,8.63
2016-01-30T13:15:20.632Z,8.69
2016-01-30T13:16:20.603Z,8.69
2016-01-30T13:17:20.575Z,8.69
2016-01-30T13:18:20.544Z,8.64
2016-01-30T13:19:20.530Z,8.66
2016-01-30T13:20:20.517Z,8.61